createdAt,value
2023-01-17T00:02:24.761Z,100099.63
2023-01-17T00:04:53.904Z,100094.18
2023-01-17T00:07:23.736Z,100085.45
2023-01-17T00:09:52.226Z,100091.70
2023-01-17T00:12:22.875Z,100093.60
2023-01-17T00:14:53.259Z,100090.45
2023-01-17T00:17:22.757Z,100083.13
2023-01-17T00:19:52.088Z,100083.29
2023-01-17T00:22:30.326Z,100086.46
2023-01-17T00:24:58.453Z,100079.16
2023-01-17T00:27:26.681Z,100066.52
2023-01-17T00:29:54.886Z,100047.83
2023-01-17T00:32:23.046Z,100053.42
2023-01-17T00:34:51.626Z,100049.73
2023-01-17T00:37:20.307Z,100043.31
2023-01-17T00:39:48.500Z,100041.14
2023-01-17T00:42:16.611Z,100038.16
2023-01-17T00:44:45.397Z,100036.64
2023-01-17T00:47:13.826Z,100027.56
2023-01-17T00:49:43.599Z,100030.57
2023-01-17T00:52:11.766Z,100031.98
2023-01-17T00:54:39.892Z,100031.08
2023-01-17T00:57:08.699Z,100036.14
2023-01-17T00:59:37.309Z,100034.56
2023-01-17T01:02:05.555Z,100028.21
2023-01-17T01:04:33.999Z,100020.95
2023-01-17T01:07:02.406Z,100023.05
2023-01-17T01:09:31.078Z,100017.09
2023-01-17T01:11:59.191Z,100016.35
2023-01-17T01:14:27.373Z,100011.55
2023-01-17T01:16:55.503Z,100008.38
2023-01-17T01:19:24.249Z,100009.10
2023-01-17T01:21:53.009Z,100009.98
2023-01-17T01:24:21.594Z,100008.88
2023-01-17T01:26:50.043Z,100004.23
2023-01-17T01:29:18.415Z,99998.15
2023-01-17T01:31:46.662Z,99998.71
2023-01-17T01:34:14.769Z,99994.16
2023-01-17T01:36:43.033Z,99984.97
2023-01-17T01:39:11.210Z,99984.33
2023-01-17T01:41:39.878Z,99997.36
2023-01-17T01:44:48.296Z,99981.59
2023-01-17T01:47:38.703Z,99986.73
2023-01-17T01:50:10.746Z,99985.05
2023-01-17T01:52:43.782Z,99963.31
2023-01-17T01:55:18.175Z,99959.14
2023-01-17T01:57:50.944Z,99956.65
2023-01-17T02:00:24.904Z,99947.72
2023-01-17T02:02:57.258Z,99947.17
2023-01-17T02:05:29.495Z,99933.42
2023-01-17T02:08:10.404Z,99917.17
2023-01-17T02:10:41.367Z,99908.05
2023-01-17T02:13:10.693Z,99912.91
2023-01-17T02:15:47.956Z,99915.55
2023-01-17T02:18:39.241Z,99905.73
2023-01-17T02:21:29.637Z,99907.02
2023-01-17T02:24:23.063Z,99904.86
2023-01-17T02:27:03.605Z,99890.73
2023-01-17T02:30:10.434Z,99885.52
2023-01-17T02:32:52.820Z,99873.61
2023-01-17T02:35:33.996Z,99863.70
2023-01-17T02:38:17.530Z,99862.67
2023-01-17T02:41:00.502Z,99845.37
2023-01-17T02:43:29.079Z,99853.30
2023-01-17T02:45:57.232Z,99859.86
2023-01-17T02:48:30.150Z,99860.48
2023-01-17T02:51:07.203Z,99856.80
2023-01-17T02:53:57.431Z,99847.77
2023-01-17T02:56:34.315Z,99834.39
2023-01-17T02:59:30.096Z,99832.80
2023-01-17T03:02:04.393Z,99824.05
2023-01-17T03:04:48.790Z,99819.19
2023-01-17T03:07:21.809Z,99823.26
2023-01-17T03:09:55.157Z,99826.87
2023-01-17T03:12:26.394Z,99829.40
2023-01-17T03:14:55.104Z,99833.06
2023-01-17T03:17:28.909Z,99832.54
2023-01-17T03:19:57.120Z,99832.46
2023-01-17T03:22:27.275Z,99830.24
2023-01-17T03:24:55.395Z,99821.42
2023-01-17T03:27:24.128Z,99818.23
2023-01-17T03:29:53.162Z,99822.38
2023-01-17T03:32:22.192Z,99830.23
2023-01-17T03:34:50.608Z,99834.67
2023-01-17T03:37:18.976Z,99833.61
2023-01-17T03:39:47.163Z,99827.14
2023-01-17T03:42:15.565Z,99825.38
2023-01-17T03:44:43.727Z,99822.90
2023-01-17T03:47:11.867Z,99824.06
2023-01-17T03:49:40.652Z,99828.92
2023-01-17T03:52:08.857Z,99816.32
2023-01-17T03:54:38.012Z,99811.40
2023-01-17T03:57:06.250Z,99801.30
2023-01-17T03:59:34.663Z,99804.34
2023-01-17T04:02:03.087Z,99805.23
2023-01-17T04:04:31.491Z,99804.10
2023-01-17T04:06:59.637Z,99798.48
2023-01-17T04:09:28.009Z,99795.58
2023-01-17T04:11:56.693Z,99776.73
2023-01-17T04:14:24.888Z,99766.35
2023-01-17T04:16:53.882Z,99763.84
2023-01-17T04:19:22.809Z,99760.17
2023-01-17T04:21:50.944Z,99761.68
2023-01-17T04:24:19.101Z,99751.48
2023-01-17T04:26:48.352Z,99757.95
2023-01-17T04:29:17.327Z,99749.94
2023-01-17T04:31:45.524Z,99742.53
2023-01-17T04:34:14.378Z,99742.20
2023-01-17T04:36:43.879Z,99735.17
2023-01-17T04:39:12.623Z,99727.70
2023-01-17T04:41:41.305Z,99721.39
2023-01-17T04:44:09.815Z,99713.80
2023-01-17T04:46:37.971Z,99709.44
2023-01-17T04:49:06.375Z,99708.57
2023-01-17T04:51:35.064Z,99705.96
2023-01-17T04:54:04.235Z,99709.34
2023-01-17T04:56:32.482Z,99703.42
2023-01-17T04:59:00.696Z,99710.80
2023-01-17T05:01:28.957Z,99706.95
2023-01-17T05:03:57.217Z,99704.73
2023-01-17T05:06:25.355Z,99695.20
2023-01-17T05:08:53.453Z,99684.10
2023-01-17T05:11:21.642Z,99692.23
2023-01-17T05:13:49.806Z,99700.92
2023-01-17T05:16:19.116Z,99691.53
2023-01-17T05:18:47.682Z,99692.76
2023-01-17T05:21:15.831Z,99698.16
2023-01-17T05:23:43.880Z,99703.36
2023-01-17T05:26:12.485Z,99705.48
2023-01-17T05:28:40.581Z,99701.80
2023-01-17T05:31:09.158Z,99703.27
2023-01-17T05:33:37.873Z,99707.98
2023-01-17T05:36:06.731Z,99715.37
2023-01-17T05:38:34.897Z,99723.05
2023-01-17T05:41:03.619Z,99718.81
2023-01-17T05:43:31.720Z,99717.79
2023-01-17T05:46:00.842Z,99713.07
2023-01-17T05:48:29.116Z,99716.10
2023-01-17T05:50:57.227Z,99715.57
2023-01-17T05:53:25.536Z,99717.05
2023-01-17T05:55:53.731Z,99706.83
2023-01-17T05:58:22.927Z,99721.54
2023-01-17T06:00:51.024Z,99720.77
2023-01-17T06:03:19.558Z,99728.35
2023-01-17T06:05:47.682Z,99718.90
2023-01-17T06:08:15.834Z,99712.71
2023-01-17T06:10:45.170Z,99716.04
2023-01-17T06:13:14.131Z,99716.73
2023-01-17T06:15:43.660Z,99712.90
2023-01-17T06:18:15.506Z,99710.73
2023-01-17T06:20:44.316Z,99713.32
2023-01-17T06:23:14.505Z,99722.00
2023-01-17T06:25:45.517Z,99719.64
2023-01-17T06:28:16.433Z,99724.45
2023-01-17T06:30:45.762Z,99724.82
2023-01-17T06:33:15.010Z,99722.77
2023-01-17T06:35:51.191Z,99722.59
2023-01-17T06:38:20.556Z,99719.42
2023-01-17T06:40:49.516Z,99713.62
2023-01-17T06:43:17.957Z,99703.17
2023-01-17T06:45:46.201Z,99700.58
2023-01-17T06:48:14.590Z,99697.40
2023-01-17T06:50:42.778Z,99695.56
2023-01-17T06:53:11.196Z,99698.48
2023-01-17T06:55:39.423Z,99698.91
2023-01-17T06:58:09.888Z,99697.27
2023-01-17T07:00:40.733Z,99694.86
2023-01-17T07:03:21.915Z,99706.96
2023-01-17T07:05:50.756Z,99700.23
2023-01-17T07:08:20.508Z,99700.17
2023-01-17T07:10:49.115Z,99687.30
2023-01-17T07:13:17.712Z,99685.65
2023-01-17T07:15:45.968Z,99696.80
2023-01-17T07:18:14.208Z,99697.08
2023-01-17T07:20:43.445Z,99688.23
2023-01-17T07:23:11.601Z,99692.64
2023-01-17T07:25:39.896Z,99689.55
2023-01-17T07:28:08.514Z,99690.14
2023-01-17T07:30:36.568Z,99681.27
2023-01-17T07:33:04.873Z,99677.83
2023-01-17T07:35:33.444Z,99680.48
2023-01-17T07:38:01.602Z,99684.95
2023-01-17T07:40:30.802Z,99690.25
2023-01-17T07:43:02.532Z,99690.00
2023-01-17T07:45:30.703Z,99694.34
2023-01-17T07:47:58.839Z,99696.36
2023-01-17T07:50:27.277Z,99693.23
2023-01-17T07:52:56.507Z,99699.99
2023-01-17T07:55:24.723Z,99702.02
2023-01-17T07:57:53.189Z,99696.70
2023-01-17T08:00:22.083Z,99705.40
2023-01-17T08:02:50.241Z,99710.55
2023-01-17T08:05:18.505Z,99704.94
2023-01-17T08:07:47.103Z,99701.89
2023-01-17T08:10:15.743Z,99702.52
2023-01-17T08:12:50.589Z,99707.21
2023-01-17T08:15:19.361Z,99702.79
2023-01-17T08:17:49.744Z,99703.92
2023-01-17T08:20:18.403Z,99703.46
2023-01-17T08:22:47.116Z,99711.33
2023-01-17T08:25:15.337Z,99712.85
2023-01-17T08:27:44.359Z,99713.14
2023-01-17T08:30:12.681Z,99710.05
2023-01-17T08:32:40.936Z,99716.48
2023-01-17T08:35:10.538Z,99717.89
2023-01-17T08:37:38.990Z,99714.17
2023-01-17T08:40:08.506Z,99716.55
2023-01-17T08:42:36.895Z,99721.41
2023-01-17T08:45:07.179Z,99722.89
2023-01-17T08:47:35.987Z,99720.59
2023-01-17T08:50:05.936Z,99725.91
2023-01-17T08:52:34.472Z,99726.61
2023-01-17T08:55:04.807Z,99728.73
2023-01-17T08:57:34.085Z,99725.48
2023-01-17T09:00:02.541Z,99734.59
2023-01-17T09:02:30.813Z,99737.89
2023-01-17T09:04:59.505Z,99744.27
2023-01-17T09:07:38.774Z,99742.23
2023-01-17T09:10:09.467Z,99738.14
2023-01-17T09:12:48.011Z,99727.52
2023-01-17T09:15:19.597Z,99727.25
2023-01-17T09:17:48.395Z,99730.54
2023-01-17T09:20:17.363Z,99728.11
2023-01-17T09:22:46.231Z,99718.12
2023-01-17T09:25:15.076Z,99721.02
2023-01-17T09:27:47.314Z,99721.16
2023-01-17T09:30:16.114Z,99718.77
2023-01-17T09:32:44.609Z,99718.23
2023-01-17T09:35:13.175Z,99725.78
2023-01-17T09:37:41.367Z,99725.86
2023-01-17T09:40:15.711Z,99723.13
2023-01-17T09:42:43.912Z,99717.42
2023-01-17T09:45:17.382Z,99718.11
2023-01-17T09:47:49.952Z,99715.96
2023-01-17T09:50:31.106Z,99715.73
2023-01-17T09:53:04.091Z,99723.90
2023-01-17T09:55:42.058Z,99717.36
2023-01-17T09:58:16.780Z,99716.73
2023-01-17T10:00:58.290Z,99718.05
2023-01-17T10:03:56.056Z,99720.08
2023-01-17T10:07:02.647Z,99707.91
2023-01-17T10:09:52.428Z,99706.38
2023-01-17T10:12:35.569Z,99705.48
2023-01-17T10:15:35.931Z,99699.40
2023-01-17T10:18:46.766Z,99690.42
2023-01-17T10:21:48.349Z,99696.69
2023-01-17T10:24:19.523Z,99693.55
2023-01-17T10:26:57.662Z,99690.90
2023-01-17T10:29:31.771Z,99679.17
2023-01-17T10:32:01.754Z,99679.48
2023-01-17T10:34:42.244Z,99677.25
2023-01-17T10:37:39.816Z,99680.07
2023-01-17T10:40:46.901Z,99672.78
2023-01-17T10:43:45.961Z,99661.60
2023-01-17T10:46:33.025Z,99652.11
2023-01-17T10:49:02.670Z,99662.47
2023-01-17T10:51:40.070Z,99656.52
2023-01-17T10:54:24.053Z,99658.06
2023-01-17T10:56:52.377Z,99664.71
2023-01-17T10:59:40.786Z,99633.36
2023-01-17T11:02:23.219Z,99651.10
2023-01-17T11:04:55.996Z,99641.36
2023-01-17T11:07:27.082Z,99639.21
2023-01-17T11:09:57.585Z,99633.17
2023-01-17T11:12:47.650Z,99625.35
2023-01-17T11:15:21.124Z,99624.75
2023-01-17T11:18:04.293Z,99621.63
2023-01-17T11:20:38.404Z,99606.89
2023-01-17T11:23:17.972Z,99599.89
2023-01-17T11:25:55.185Z,99597.25
2023-01-17T11:28:27.329Z,99583.25
2023-01-17T11:30:58.448Z,99577.09
2023-01-17T11:33:36.034Z,99571.51
2023-01-17T11:36:04.559Z,99567.69
2023-01-17T11:38:33.071Z,99558.15
2023-01-17T11:41:10.709Z,99556.29
2023-01-17T11:43:57.025Z,99558.11
2023-01-17T11:46:26.531Z,99551.56
2023-01-17T11:48:59.820Z,99542.94
2023-01-17T11:51:40.866Z,99541.50
2023-01-17T11:54:30.272Z,99534.75
2023-01-17T11:57:01.435Z,99527.79
2023-01-17T11:59:32.384Z,99515.73
2023-01-17T12:02:19.311Z,99514.45
2023-01-17T12:05:03.852Z,99505.69
2023-01-17T12:07:41.156Z,99496.32
2023-01-17T12:10:24.396Z,99494.06
2023-01-17T12:12:55.944Z,99485.02
2023-01-17T12:15:42.883Z,99483.36
2023-01-17T12:18:57.835Z,99476.88
2023-01-17T12:21:57.449Z,99478.74
2023-01-17T12:25:06.564Z,99476.14
2023-01-17T12:28:04.441Z,99469.21
2023-01-17T12:30:59.109Z,99457.66
2023-01-17T12:33:53.749Z,99442.59
2023-01-17T12:36:22.000Z,99445.13
2023-01-17T12:38:51.279Z,99442.69
2023-01-17T12:41:29.234Z,99441.48
2023-01-17T12:44:00.738Z,99439.35
2023-01-17T12:46:32.058Z,99438.09
2023-01-17T12:49:44.642Z,99435.88
2023-01-17T12:52:25.444Z,99435.34
2023-01-17T12:55:00.125Z,99437.39
2023-01-17T12:57:35.452Z,99428.02
2023-01-17T13:00:17.713Z,99434.34
2023-01-17T13:03:23.070Z,99427.61
2023-01-17T13:05:52.381Z,99418.06
2023-01-17T13:08:43.822Z,99413.77
2023-01-17T13:11:23.949Z,99422.58
2023-01-17T13:13:52.569Z,99398.59
2023-01-17T13:16:34.029Z,99417.16
2023-01-17T13:19:28.709Z,99405.43
2023-01-17T13:21:58.345Z,99402.31
2023-01-17T13:24:34.485Z,99403.05
2023-01-17T13:27:21.946Z,99385.65
2023-01-17T13:30:14.319Z,99391.41
2023-01-17T13:33:07.473Z,99390.16
2023-01-17T13:36:19.300Z,99389.39
2023-01-17T13:39:02.146Z,99374.36
2023-01-17T13:41:42.729Z,99377.98
2023-01-17T13:44:12.842Z,99368.87
2023-01-17T13:47:00.812Z,99377.61
2023-01-17T13:49:47.580Z,99357.25
2023-01-17T13:52:19.020Z,99371.98
2023-01-17T13:54:50.453Z,99380.49
2023-01-17T13:57:25.009Z,99390.27
2023-01-17T13:59:54.470Z,99382.38
2023-01-17T14:02:39.137Z,99390.23
2023-01-17T14:05:13.762Z,99386.13
2023-01-17T14:07:48.548Z,99396.18
2023-01-17T14:10:45.729Z,99403.48
2023-01-17T14:13:37.880Z,99400.95
2023-01-17T14:16:27.890Z,99404.83
2023-01-17T14:18:57.018Z,99410.86
2023-01-17T14:21:28.467Z,99415.03
2023-01-17T14:24:05.413Z,99411.12
2023-01-17T14:26:36.215Z,99419.17
2023-01-17T14:29:42.200Z,99411.59
2023-01-17T14:32:14.045Z,99409.59
2023-01-17T14:34:46.012Z,99415.47
2023-01-17T14:37:40.777Z,99426.23
2023-01-17T14:40:24.907Z,99421.64
2023-01-17T14:43:03.091Z,99411.39
2023-01-17T14:45:34.228Z,99417.23
2023-01-17T14:48:05.874Z,99423.52
2023-01-17T14:50:39.233Z,99437.05
2023-01-17T14:53:27.917Z,99427.31
2023-01-17T14:56:01.287Z,99443.55
2023-01-17T14:58:34.722Z,99440.52
2023-01-17T15:01:14.056Z,99446.80
2023-01-17T15:03:51.934Z,99449.84
2023-01-17T15:06:29.041Z,99453.48
2023-01-17T15:08:57.742Z,99475.83
2023-01-17T15:11:30.102Z,99468.63
2023-01-17T15:14:01.913Z,99463.31
2023-01-17T15:16:33.972Z,99460.81
2023-01-17T15:19:11.019Z,99469.98
2023-01-17T15:21:41.041Z,99471.88
2023-01-17T15:24:18.457Z,99476.88
2023-01-17T15:26:47.443Z,99478.29
2023-01-17T15:29:24.907Z,99476.85
2023-01-17T15:31:58.841Z,99482.77
2023-01-17T15:34:43.049Z,99476.92
2023-01-17T15:37:29.442Z,99476.41
2023-01-17T15:40:15.747Z,99490.89
2023-01-17T15:42:47.679Z,99482.13
2023-01-17T15:45:19.776Z,99499.56
2023-01-17T15:47:48.351Z,99493.27
2023-01-17T15:50:31.737Z,99503.77
2023-01-17T15:53:06.580Z,99489.58
2023-01-17T15:55:38.149Z,99496.27
2023-01-17T15:58:24.724Z,99491.98
2023-01-17T16:00:53.252Z,99501.23
2023-01-17T16:03:30.208Z,99497.92
2023-01-17T16:06:00.570Z,99498.58
2023-01-17T16:08:36.368Z,99523.41
2023-01-17T16:11:08.257Z,99516.20
2023-01-17T16:13:38.820Z,99524.97
2023-01-17T16:16:17.247Z,99512.50
2023-01-17T16:18:47.769Z,99521.30
2023-01-17T16:21:25.681Z,99512.09
2023-01-17T16:23:54.955Z,99523.52
2023-01-17T16:26:24.425Z,99526.96
2023-01-17T16:28:53.440Z,99531.18
2023-01-17T16:31:21.867Z,99539.78
2023-01-17T16:33:50.792Z,99539.25
2023-01-17T16:36:19.661Z,99542.48
2023-01-17T16:38:50.472Z,99538.86
2023-01-17T16:41:22.105Z,99540.92
2023-01-17T16:44:00.258Z,99535.23
2023-01-17T16:46:30.200Z,99543.17
2023-01-17T16:49:01.882Z,99537.66
2023-01-17T16:51:30.145Z,99538.00
2023-01-17T16:53:58.547Z,99540.36
2023-01-17T16:56:27.654Z,99540.99
2023-01-17T16:58:55.907Z,99550.10
2023-01-17T17:01:24.157Z,99550.92
2023-01-17T17:03:52.623Z,99561.91
2023-01-17T17:06:20.968Z,99562.45
2023-01-17T17:08:49.341Z,99563.74
2023-01-17T17:11:22.628Z,99572.88
2023-01-17T17:13:51.912Z,99576.85
2023-01-17T17:16:26.417Z,99566.52
2023-01-17T17:18:57.921Z,99594.86
2023-01-17T17:21:26.929Z,99592.48
2023-01-17T17:23:57.573Z,99598.80
2023-01-17T17:26:31.365Z,99606.83
2023-01-17T17:29:00.685Z,99606.25
2023-01-17T17:31:29.175Z,99615.27
2023-01-17T17:34:00.434Z,99623.48
2023-01-17T17:36:29.553Z,99626.23
2023-01-17T17:38:58.661Z,99635.07
2023-01-17T17:41:30.315Z,99634.55
2023-01-17T17:44:01.195Z,99638.93
2023-01-17T17:46:30.808Z,99649.09
2023-01-17T17:49:00.003Z,99652.27
2023-01-17T17:51:31.878Z,99645.02
2023-01-17T17:54:06.027Z,99645.00
2023-01-17T17:56:34.912Z,99653.85
2023-01-17T17:59:05.147Z,99663.29
2023-01-17T18:01:33.864Z,99653.86
2023-01-17T18:04:03.316Z,99663.91
2023-01-17T18:06:31.556Z,99665.05
2023-01-17T18:09:01.584Z,99671.85
2023-01-17T18:11:31.313Z,99681.20
2023-01-17T18:14:01.590Z,99679.69
2023-01-17T18:16:36.173Z,99678.05
2023-01-17T18:19:06.041Z,99685.98
2023-01-17T18:21:39.111Z,99688.90
2023-01-17T18:24:10.940Z,99691.49
2023-01-17T18:26:45.806Z,99702.04
2023-01-17T18:29:15.555Z,99702.48
2023-01-17T18:31:45.482Z,99703.86
2023-01-17T18:34:16.430Z,99705.91
2023-01-17T18:36:45.606Z,99703.30
2023-01-17T18:39:19.655Z,99705.24
2023-01-17T18:41:48.149Z,99710.95
2023-01-17T18:44:17.065Z,99714.20
2023-01-17T18:46:45.298Z,99714.29
2023-01-17T18:49:15.338Z,99720.98
2023-01-17T18:51:43.600Z,99725.64
2023-01-17T18:54:12.190Z,99712.76
2023-01-17T18:56:40.673Z,99717.63
2023-01-17T18:59:13.992Z,99727.42
2023-01-17T19:01:42.452Z,99731.63
2023-01-17T19:04:12.209Z,99739.86
2023-01-17T19:06:42.681Z,99740.23
2023-01-17T19:09:13.011Z,99734.92
2023-01-17T19:11:41.547Z,99737.66
2023-01-17T19:14:11.620Z,99738.51
2023-01-17T19:16:41.689Z,99733.62
2023-01-17T19:19:12.924Z,99739.60
2023-01-17T19:21:41.217Z,99733.13
2023-01-17T19:24:11.470Z,99729.36
2023-01-17T19:26:40.017Z,99736.40
2023-01-17T19:29:09.538Z,99731.18
2023-01-17T19:31:40.472Z,99737.30
2023-01-17T19:34:09.144Z,99738.58
2023-01-17T19:36:39.589Z,99730.43
2023-01-17T19:39:08.970Z,99741.92
2023-01-17T19:41:43.571Z,99746.33
2023-01-17T19:44:13.564Z,99738.55
2023-01-17T19:46:42.250Z,99743.27
2023-01-17T19:49:11.060Z,99745.98
2023-01-17T19:51:39.574Z,99746.90
2023-01-17T19:54:07.883Z,99749.81
2023-01-17T19:56:36.324Z,99746.48
2023-01-17T19:59:04.868Z,99748.18
2023-01-17T20:01:34.870Z,99748.66
2023-01-17T20:04:04.395Z,99753.40
2023-01-17T20:06:36.117Z,99749.36
2023-01-17T20:09:06.649Z,99747.55
2023-01-17T20:11:35.733Z,99757.12
2023-01-17T20:14:04.609Z,99752.74
2023-01-17T20:16:36.596Z,99754.48
2023-01-17T20:19:05.212Z,99756.91
2023-01-17T20:21:33.333Z,99757.69
2023-01-17T20:24:01.972Z,99743.20
2023-01-17T20:26:33.483Z,99747.19
2023-01-17T20:29:04.490Z,99755.20
2023-01-17T20:31:32.714Z,99765.01
2023-01-17T20:34:00.934Z,99762.62
2023-01-17T20:36:29.092Z,99763.98
2023-01-17T20:38:57.491Z,99773.49
2023-01-17T20:41:30.191Z,99777.27
2023-01-17T20:44:00.331Z,99776.63
2023-01-17T20:46:31.473Z,99780.47
2023-01-17T20:48:59.920Z,99778.54
2023-01-17T20:51:30.046Z,99776.53
2023-01-17T20:54:00.202Z,99769.39
2023-01-17T20:56:29.025Z,99764.23
2023-01-17T20:58:57.166Z,99753.65
2023-01-17T21:01:25.602Z,99772.13
2023-01-17T21:03:54.044Z,99772.16
2023-01-17T21:06:23.617Z,99771.55
2023-01-17T21:08:52.571Z,99776.30
2023-01-17T21:11:23.868Z,99778.84
2023-01-17T21:13:52.104Z,99790.61
2023-01-17T21:16:22.432Z,99786.27
2023-01-17T21:18:51.894Z,99789.69
2023-01-17T21:21:26.424Z,99793.32
2023-01-17T21:23:56.845Z,99803.48
2023-01-17T21:26:27.316Z,99815.05
2023-01-17T21:28:56.008Z,99814.27
2023-01-17T21:31:27.289Z,99807.16
2023-01-17T21:34:03.658Z,99815.04
2023-01-17T21:36:34.399Z,99810.56
2023-01-17T21:39:11.461Z,99812.32
2023-01-17T21:41:41.712Z,99810.25
2023-01-17T21:44:16.298Z,99813.59
2023-01-17T21:46:44.521Z,99810.68
2023-01-17T21:49:12.843Z,99813.52
2023-01-17T21:51:43.524Z,99816.11
2023-01-17T21:54:12.117Z,99820.27
2023-01-17T21:56:40.347Z,99827.71
2023-01-17T21:59:08.387Z,99825.92
2023-01-17T22:01:36.723Z,99820.29
2023-01-17T22:04:05.105Z,99819.23
2023-01-17T22:06:34.271Z,99811.56
2023-01-17T22:09:03.744Z,99808.48
2023-01-17T22:11:32.210Z,99811.20
2023-01-17T22:14:00.891Z,99811.46
2023-01-17T22:16:29.014Z,99808.14
2023-01-17T22:18:57.719Z,99804.39
2023-01-17T22:21:28.632Z,99809.87
2023-01-17T22:23:59.431Z,99810.95
2023-01-17T22:26:30.534Z,99810.36
2023-01-17T22:29:02.165Z,99806.92
2023-01-17T22:31:31.557Z,99815.89
2023-01-17T22:34:02.480Z,99811.35
2023-01-17T22:36:34.790Z,99808.04
2023-01-17T22:39:03.025Z,99804.98
2023-01-17T22:41:31.581Z,99809.08
2023-01-17T22:44:01.147Z,99817.70
2023-01-17T22:46:32.951Z,99819.08
2023-01-17T22:49:01.579Z,99825.70
2023-01-17T22:51:29.809Z,99824.21
2023-01-17T22:54:00.583Z,99823.55
2023-01-17T22:56:32.684Z,99810.57
2023-01-17T22:59:01.724Z,99807.61
2023-01-17T23:01:32.075Z,99805.40
2023-01-17T23:04:04.785Z,99802.11
2023-01-17T23:06:35.670Z,99808.65
2023-01-17T23:09:07.988Z,99802.26
2023-01-17T23:11:42.741Z,99803.85
2023-01-17T23:14:14.070Z,99809.61
2023-01-17T23:16:47.640Z,99821.18
2023-01-17T23:19:16.130Z,99832.88
2023-01-17T23:21:44.252Z,99837.71
2023-01-17T23:24:13.319Z,99839.51
2023-01-17T23:26:41.466Z,99827.98
2023-01-17T23:29:09.542Z,99814.79
2023-01-17T23:31:37.729Z,99808.25
2023-01-17T23:34:07.192Z,99811.72
2023-01-17T23:36:35.347Z,99812.65
2023-01-17T23:39:03.560Z,99801.36
2023-01-17T23:41:31.819Z,99803.86
2023-01-17T23:44:00.031Z,99805.61
2023-01-17T23:46:28.235Z,99804.98
2023-01-17T23:48:56.823Z,99804.36
2023-01-17T23:51:25.012Z,99812.02
2023-01-17T23:53:53.339Z,99810.20
2023-01-17T23:56:24.328Z,99808.14
2023-01-17T23:58:53.000Z,99811.74
